Time;durP1;ratioP1;P1;durP2;ratioP2;P2;SDS_P1;SDS_P2;PMS_P1;PMS_P2;Temp;Humidity;BMP_temperature;BMP_pressure;BME280_temperature;BME280_humidity;BME280_pressure;Samples;Min_cycle;Max_cycle;Signal;HPM_P1;HPM_P2
2022/10/12 00:00:28;;;;;;;16.27;13.73;;;13.80;99.90;;;;;;5114792;28;20548;-55
2022/10/12 00:02:55;;;;;;;17.33;14.57;;;13.80;99.90;;;;;;5115580;28;20470;-55
2022/10/12 00:05:24;;;;;;;21.10;16.70;;;13.70;99.90;;;;;;5115808;28;20457;-56
2022/10/12 00:07:51;;;;;;;18.70;16.70;;;13.70;99.90;;;;;;5114678;28;20443;-55
2022/10/12 00:10:18;;;;;;;22.03;14.07;;;13.60;99.90;;;;;;5115315;28;20811;-55
2022/10/12 00:12:46;;;;;;;21.53;15.63;;;13.70;99.90;;;;;;5115761;28;20472;-55
2022/10/12 00:15:13;;;;;;;19.23;14.67;;;13.70;99.90;;;;;;5114573;28;21034;-56
2022/10/12 00:17:40;;;;;;;17.70;15.07;;;13.70;99.90;;;;;;5115019;28;20452;-55
2022/10/12 00:20:08;;;;;;;18.53;14.80;;;13.70;99.90;;;;;;5115292;28;20433;-55
2022/10/12 00:22:37;;;;;;;18.70;15.90;;;13.60;99.90;;;;;;5114156;28;20827;-55
2022/10/12 00:25:05;;;;;;;21.30;15.73;;;13.60;99.90;;;;;;5114653;28;20523;-55
2022/10/12 00:27:33;;;;;;;24.03;15.60;;;13.50;99.90;;;;;;5115537;28;20793;-55
2022/10/12 00:30:00;;;;;;;18.47;14.50;;;13.50;99.90;;;;;;5114800;28;20553;-55
2022/10/12 00:32:27;;;;;;;32.43;15.67;;;13.50;99.90;;;;;;5114005;28;20549;-55
2022/10/12 00:34:54;;;;;;;19.03;14.67;;;13.40;99.90;;;;;;5114968;28;20948;-55
2022/10/12 00:37:22;;;;;;;19.10;16.10;;;13.30;99.90;;;;;;5115074;28;20449;-55
2022/10/12 00:39:50;;;;;;;20.70;15.10;;;13.40;99.90;;;;;;5113968;28;20939;-55
2022/10/12 00:42:20;;;;;;;20.90;15.60;;;13.40;99.90;;;;;;5114964;28;20467;-55
2022/10/12 00:44:49;;;;;;;20.40;16.30;;;13.40;99.90;;;;;;5114927;28;20776;-55
2022/10/12 00:47:25;;;;;;;17.97;16.00;;;13.30;99.90;;;;;;5114729;28;20452;-55
2022/10/12 00:49:58;;;;;;;20.93;16.70;;;13.20;99.90;;;;;;5114589;28;20795;-55
2022/10/12 00:52:29;;;;;;;18.90;16.77;;;13.10;99.90;;;;;;5112321;28;20470;-55
2022/10/12 00:54:59;;;;;;;20.70;16.83;;;13.10;99.90;;;;;;5114491;28;20553;-56
2022/10/12 00:57:27;;;;;;;24.40;16.93;;;13.10;99.90;;;;;;5114622;28;20412;-56
2022/10/12 00:59:58;;;;;;;18.90;16.90;;;13.10;99.90;;;;;;5112645;28;20562;-55
2022/10/12 01:02:27;;;;;;;21.37;16.80;;;13.10;99.90;;;;;;5114195;28;20477;-55
2022/10/12 01:04:54;;;;;;;20.30;15.73;;;13.20;99.90;;;;;;5114535;28;20446;-55
2022/10/12 01:07:22;;;;;;;21.97;16.60;;;13.20;99.90;;;;;;5111943;28;20747;-55
2022/10/12 01:09:50;;;;;;;17.67;15.87;;;13.20;99.90;;;;;;5114551;28;20447;-55
2022/10/12 01:12:20;;;;;;;22.30;15.70;;;13.10;99.90;;;;;;5114649;28;20471;-55
2022/10/12 01:14:47;;;;;;;25.67;18.80;;;13.10;99.90;;;;;;5112253;28;21054;-55
2022/10/12 01:17:25;;;;;;;23.07;14.80;;;13.10;99.90;;;;;;5113972;28;20508;-55
2022/10/12 01:20:27;;;;;;;27.20;17.30;;;13.20;99.90;;;;;;5114413;28;20419;-55
2022/10/12 01:23:12;;;;;;;19.03;15.57;;;13.20;99.90;;;;;;5111903;28;20477;-55
2022/10/12 01:25:56;;;;;;;19.27;16.57;;;13.00;99.90;;;;;;5113928;28;20410;-55
2022/10/12 01:28:34;;;;;;;22.90;17.40;;;13.00;99.90;;;;;;5114434;28;20427;-55
2022/10/12 01:31:09;;;;;;;21.17;16.63;;;13.10;99.90;;;;;;5111999;28;20461;-55
2022/10/12 01:33:40;;;;;;;19.10;16.47;;;13.10;99.90;;;;;;5113523;28;20467;-55
2022/10/12 01:36:15;;;;;;;24.87;18.23;;;13.00;99.90;;;;;;5114313;28;20466;-55
2022/10/12 01:38:48;;;;;;;22.73;16.53;;;13.00;99.90;;;;;;5111920;28;20433;-55
2022/10/12 01:41:20;;;;;;;22.97;16.10;;;13.00;99.90;;;;;;5113639;28;20886;-55
2022/10/12 01:43:47;;;;;;;22.00;16.73;;;13.00;99.90;;;;;;5113838;28;21087;-55
2022/10/12 01:46:41;;;;;;;19.83;17.83;;;13.00;99.90;;;;;;5111563;28;20446;-55
2022/10/12 01:49:09;;;;;;;25.23;17.70;;;13.00;99.90;;;;;;5113925;28;20443;-55
2022/10/12 01:51:46;;;;;;;24.73;17.80;;;12.90;99.90;;;;;;5111829;28;20463;-55
2022/10/12 01:54:24;;;;;;;22.93;17.50;;;13.00;99.90;;;;;;5113479;28;20472;-55
2022/10/12 01:56:57;;;;;;;19.83;17.00;;;13.00;99.90;;;;;;5113420;28;20490;-56
2022/10/12 01:59:35;;;;;;;20.30;18.10;;;12.80;99.90;;;;;;5111567;28;20803;-55
2022/10/12 02:02:11;;;;;;;20.00;17.87;;;12.80;99.90;;;;;;5113695;28;20477;-56
2022/10/12 02:04:49;;;;;;;22.37;17.20;;;12.70;99.90;;;;;;5113771;28;20423;-55
2022/10/12 02:07:23;;;;;;;20.13;17.57;;;12.80;99.90;;;;;;5111424;28;20418;-55
2022/10/12 02:09:54;;;;;;;20.10;17.47;;;12.70;99.90;;;;;;5113660;28;20410;-55
2022/10/12 02:12:23;;;;;;;22.43;18.23;;;12.60;99.90;;;;;;5113291;28;21054;-56
2022/10/12 02:14:55;;;;;;;19.73;16.40;;;12.60;99.90;;;;;;5110890;28;20446;-55
2022/10/12 02:17:24;;;;;;;20.77;18.40;;;12.70;99.90;;;;;;5113762;28;20472;-55
2022/10/12 02:19:56;;;;;;;21.77;16.43;;;12.70;99.90;;;;;;5113649;28;20518;-55
2022/10/12 02:22:25;;;;;;;19.00;16.17;;;12.60;99.90;;;;;;5110376;28;20987;-55
2022/10/12 02:24:56;;;;;;;22.90;16.63;;;12.40;99.90;;;;;;5113483;28;20450;-55
2022/10/12 02:27:25;;;;;;;23.57;18.30;;;12.30;99.90;;;;;;5113121;28;20479;-55
2022/10/12 02:29:53;;;;;;;24.80;17.90;;;12.30;99.90;;;;;;5110853;28;20438;-55
2022/10/12 02:32:28;;;;;;;22.07;19.23;;;12.30;99.90;;;;;;5113052;28;20481;-55
2022/10/12 02:35:01;;;;;;;23.07;18.53;;;12.20;99.90;;;;;;5113060;28;20430;-55
2022/10/12 02:37:38;;;;;;;21.93;17.27;;;12.20;99.90;;;;;;5111109;28;20462;-55
2022/10/12 02:40:12;;;;;;;26.67;18.43;;;12.10;99.90;;;;;;5113468;28;20434;-55
2022/10/12 02:42:43;;;;;;;21.40;18.00;;;12.10;99.90;;;;;;5112524;28;20626;-55
2022/10/12 02:45:13;;;;;;;23.50;17.87;;;12.20;99.90;;;;;;5111048;28;20431;-55
2022/10/12 02:47:44;;;;;;;20.87;17.43;;;12.40;99.90;;;;;;5116437;28;20759;-55
2022/10/12 02:50:12;;;;;;;22.57;18.13;;;12.50;99.90;;;;;;5117158;28;20407;-55
2022/10/12 02:52:40;;;;;;;26.57;18.27;;;12.40;99.90;;;;;;5114607;28;20469;-55
2022/10/12 02:55:07;;;;;;;22.97;18.70;;;12.40;99.90;;;;;;5115532;28;20481;-56
2022/10/12 02:57:34;;;;;;;22.93;19.77;;;12.40;99.90;;;;;;5117397;28;20473;-56
2022/10/12 03:00:02;;;;;;;24.90;20.37;;;12.40;99.90;;;;;;5114781;28;20564;-56
2022/10/12 03:02:29;;;;;;;26.50;19.40;;;12.50;99.90;;;;;;5116518;28;20956;-56
2022/10/12 03:04:58;;;;;;;24.40;19.20;;;12.50;99.90;;;;;;5116943;28;20486;-56
2022/10/12 03:07:25;;;;;;;27.03;19.90;;;12.50;99.90;;;;;;5114375;28;20925;-55
2022/10/12 03:09:53;;;;;;;28.37;20.83;;;12.50;99.90;;;;;;5116767;28;20525;-55
2022/10/12 03:12:20;;;;;;;32.70;20.30;;;12.60;99.90;;;;;;5117066;28;20489;-55
2022/10/12 03:14:47;;;;;;;25.43;17.57;;;12.60;99.90;;;;;;5115016;28;20456;-56
2022/10/12 03:17:14;;;;;;;20.50;18.37;;;12.60;99.90;;;;;;5116506;28;20477;-55
2022/10/12 03:19:41;;;;;;;27.57;17.73;;;12.60;99.90;;;;;;5116965;28;20530;-56
2022/10/12 03:22:10;;;;;;;21.27;17.70;;;12.60;99.90;;;;;;5113827;28;20549;-55
2022/10/12 03:24:37;;;;;;;24.07;18.07;;;12.60;99.90;;;;;;5116720;28;20446;-55
2022/10/12 03:27:04;;;;;;;21.53;17.30;;;12.60;99.90;;;;;;5116402;28;20452;-56
2022/10/12 03:29:31;;;;;;;25.73;18.33;;;12.70;99.90;;;;;;5114576;28;20446;-55
2022/10/12 03:31:58;;;;;;;23.70;19.93;;;12.70;99.90;;;;;;5116684;28;21039;-55
2022/10/12 03:34:25;;;;;;;24.93;18.03;;;12.80;99.90;;;;;;5116451;28;20426;-55
2022/10/12 03:36:53;;;;;;;26.27;19.27;;;12.80;99.90;;;;;;5114289;28;20480;-55
2022/10/12 03:39:21;;;;;;;21.80;19.53;;;12.90;99.90;;;;;;5116244;28;20446;-56
2022/10/12 03:41:48;;;;;;;21.83;17.90;;;13.00;99.90;;;;;;5116262;28;20466;-55
2022/10/12 03:44:15;;;;;;;24.20;17.00;;;13.10;99.90;;;;;;5113900;28;20537;-55
2022/10/12 03:46:42;;;;;;;30.40;19.07;;;13.10;99.90;;;;;;5116335;28;20438;-56
2022/10/12 03:49:10;;;;;;;27.00;19.90;;;13.00;99.90;;;;;;5114797;28;20541;-56
2022/10/12 03:51:37;;;;;;;26.77;19.40;;;12.90;99.90;;;;;;5113970;28;20488;-55
2022/10/12 03:54:04;;;;;;;22.73;18.30;;;13.00;99.90;;;;;;5115651;28;20450;-56
2022/10/12 03:56:33;;;;;;;33.70;20.50;;;13.00;99.90;;;;;;5115247;28;20490;-55
2022/10/12 03:59:00;;;;;;;28.60;19.33;;;13.00;99.90;;;;;;5113696;28;20455;-56
2022/10/12 04:01:27;;;;;;;27.87;19.00;;;13.10;99.90;;;;;;5115991;28;20458;-55
2022/10/12 04:03:54;;;;;;;20.60;17.80;;;13.10;99.90;;;;;;5115613;28;20443;-56
2022/10/12 04:06:21;;;;;;;22.77;18.00;;;13.10;99.90;;;;;;5114289;28;20439;-56
2022/10/12 04:08:48;;;;;;;23.70;17.73;;;13.00;99.90;;;;;;5115553;28;20447;-56
2022/10/12 04:11:16;;;;;;;22.07;19.23;;;13.00;99.90;;;;;;5115753;28;20451;-56
2022/10/12 04:13:44;;;;;;;25.90;17.77;;;13.00;99.90;;;;;;5113847;28;20515;-55
2022/10/12 04:16:12;;;;;;;25.90;19.03;;;13.00;99.90;;;;;;5115711;28;20483;-56
2022/10/12 04:18:39;;;;;;;25.13;19.30;;;13.00;99.90;;;;;;5115110;28;20902;-56
2022/10/12 04:21:09;;;;;;;22.17;18.57;;;12.90;99.90;;;;;;5113402;28;20447;-56
2022/10/12 04:23:37;;;;;;;22.13;17.70;;;12.80;99.90;;;;;;5114857;28;20523;-55
2022/10/12 04:26:04;;;;;;;22.73;17.80;;;12.90;99.90;;;;;;5115176;28;20871;-56
2022/10/12 04:28:31;;;;;;;20.53;16.47;;;13.00;99.90;;;;;;5113522;28;20461;-56
2022/10/12 04:31:00;;;;;;;28.37;18.10;;;13.10;99.90;;;;;;5115440;28;20467;-55
2022/10/12 04:33:27;;;;;;;23.77;19.63;;;13.10;99.90;;;;;;5115074;28;20869;-55
2022/10/12 04:35:54;;;;;;;22.97;17.50;;;13.20;99.90;;;;;;5113290;28;20533;-56
2022/10/12 04:38:21;;;;;;;24.43;18.33;;;13.20;99.90;;;;;;5115001;28;20476;-56
2022/10/12 04:40:49;;;;;;;21.77;18.77;;;13.10;99.90;;;;;;5114850;28;20703;-55
2022/10/12 04:43:17;;;;;;;24.90;16.67;;;13.00;99.90;;;;;;5112963;28;20474;-56
2022/10/12 04:45:44;;;;;;;19.20;16.90;;;13.00;99.90;;;;;;5114845;28;20451;-56
2022/10/12 04:48:13;;;;;;;20.00;17.50;;;13.20;99.90;;;;;;5114651;28;20878;-55
2022/10/12 04:50:40;;;;;;;21.20;17.47;;;13.10;99.90;;;;;;5112458;28;20447;-55
2022/10/12 04:53:07;;;;;;;22.93;16.63;;;13.20;99.90;;;;;;5114280;28;21048;-55
2022/10/12 04:55:34;;;;;;;25.87;17.00;;;13.20;99.90;;;;;;5114366;28;20567;-56
2022/10/12 04:58:01;;;;;;;22.90;16.40;;;13.20;99.90;;;;;;5112739;28;20482;-55
2022/10/12 05:00:29;;;;;;;18.83;15.83;;;13.30;99.90;;;;;;5114466;28;20454;-55
2022/10/12 05:02:56;;;;;;;23.37;17.67;;;13.30;99.90;;;;;;5114189;28;20834;-57
2022/10/12 05:05:24;;;;;;;24.43;15.77;;;13.30;99.90;;;;;;5112592;28;20449;-56
2022/10/12 05:07:51;;;;;;;23.63;15.87;;;13.30;99.90;;;;;;5114570;28;20445;-56
2022/10/12 05:10:19;;;;;;;24.60;17.90;;;13.30;99.90;;;;;;5113402;28;20849;-56
2022/10/12 05:12:46;;;;;;;29.20;16.77;;;13.30;99.90;;;;;;5112026;28;20446;-55
2022/10/12 05:15:13;;;;;;;21.57;17.80;;;13.30;99.90;;;;;;5114144;28;20453;-56
2022/10/12 05:17:40;;;;;;;27.97;18.90;;;13.30;99.90;;;;;;5114230;28;20480;-55
2022/10/12 05:20:09;;;;;;;26.87;17.03;;;13.40;99.90;;;;;;5111776;28;20493;-56
2022/10/12 05:22:37;;;;;;;22.50;18.13;;;13.40;99.90;;;;;;5113402;27;20920;-56
2022/10/12 05:25:06;;;;;;;25.10;16.90;;;13.40;99.90;;;;;;5114132;28;20449;-56
2022/10/12 05:27:33;;;;;;;30.30;17.87;;;13.50;99.90;;;;;;5111792;28;20929;-55
2022/10/12 05:30:00;;;;;;;21.53;16.83;;;13.40;99.90;;;;;;5113732;28;20988;-56
2022/10/12 05:32:28;;;;;;;27.40;17.20;;;13.40;99.90;;;;;;5114091;28;20463;-56
2022/10/12 05:34:55;;;;;;;21.83;17.13;;;13.30;99.90;;;;;;5112157;28;20457;-56
2022/10/12 05:37:22;;;;;;;26.20;19.10;;;13.20;99.90;;;;;;5113839;28;20475;-56
2022/10/12 05:39:51;;;;;;;24.70;17.97;;;13.30;99.90;;;;;;5113764;28;20823;-57
2022/10/12 05:42:18;;;;;;;26.23;18.40;;;13.30;99.90;;;;;;5111952;28;20809;-56
2022/10/12 05:44:45;;;;;;;27.20;16.50;;;13.30;99.90;;;;;;5113889;28;20537;-55
2022/10/12 05:47:12;;;;;;;24.23;17.27;;;13.40;99.90;;;;;;5113397;28;20530;-56
2022/10/12 05:49:39;;;;;;;26.23;17.47;;;13.50;99.90;;;;;;5112250;28;20443;-56
2022/10/12 05:52:06;;;;;;;24.70;16.80;;;13.50;99.90;;;;;;5113509;28;20827;-56
2022/10/12 05:54:34;;;;;;;24.60;16.30;;;13.40;99.90;;;;;;5113273;28;20473;-56
2022/10/12 05:57:02;;;;;;;21.93;18.03;;;13.40;99.90;;;;;;5111925;28;20581;-55
2022/10/12 05:59:29;;;;;;;29.50;17.80;;;13.60;99.90;;;;;;5113571;28;20537;-55
2022/10/12 06:01:57;;;;;;;17.40;15.60;;;13.60;99.90;;;;;;5113248;28;20481;-56
2022/10/12 06:04:24;;;;;;;21.07;18.10;;;13.50;99.90;;;;;;5111857;28;20523;-55
2022/10/12 06:06:51;;;;;;;22.53;17.17;;;13.50;99.90;;;;;;5113377;28;20495;-56
2022/10/12 06:09:18;;;;;;;24.43;19.20;;;13.50;99.90;;;;;;5113237;28;20450;-56
2022/10/12 06:11:45;;;;;;;25.13;17.77;;;13.50;99.90;;;;;;5111963;28;20466;-56
2022/10/12 06:14:14;;;;;;;26.00;17.37;;;13.50;99.90;;;;;;5113079;28;20482;-56
2022/10/12 06:16:42;;;;;;;26.80;19.97;;;13.50;99.90;;;;;;5112920;28;20794;-56
2022/10/12 06:19:11;;;;;;;23.50;18.60;;;13.60;99.90;;;;;;5111421;28;20457;-56
2022/10/12 06:21:38;;;;;;;24.47;17.00;;;13.70;99.90;;;;;;5112763;28;20578;-56
2022/10/12 06:24:05;;;;;;;21.77;17.87;;;13.70;99.90;;;;;;5112398;28;20449;-56
2022/10/12 06:26:32;;;;;;;23.47;17.53;;;13.80;99.90;;;;;;5112122;28;20449;-55
2022/10/12 06:29:00;;;;;;;24.10;18.60;;;13.90;99.90;;;;;;5113103;28;20836;-56
2022/10/12 06:31:28;;;;;;;22.53;17.90;;;13.90;99.90;;;;;;5112851;28;20450;-56
2022/10/12 06:33:56;;;;;;;21.03;17.80;;;13.90;99.90;;;;;;5112614;28;20657;-56
2022/10/12 06:36:23;;;;;;;31.70;19.20;;;13.90;99.90;;;;;;5112589;28;20474;-56
2022/10/12 06:38:50;;;;;;;33.83;20.20;;;14.00;99.90;;;;;;5112339;28;20489;-56
2022/10/12 06:41:17;;;;;;;22.57;20.00;;;14.00;99.90;;;;;;5110664;28;20537;-55
2022/10/12 06:43:44;;;;;;;22.03;19.03;;;14.10;99.90;;;;;;5112173;28;20781;-56
2022/10/12 06:46:12;;;;;;;28.43;20.27;;;14.00;99.90;;;;;;5112848;28;20786;-55
2022/10/12 06:48:40;;;;;;;27.53;18.13;;;14.00;99.90;;;;;;5110180;28;20939;-55
2022/10/12 06:51:07;;;;;;;29.07;19.90;;;13.90;99.90;;;;;;5112189;28;20508;-56
2022/10/12 06:53:35;;;;;;;24.20;18.20;;;13.90;99.90;;;;;;5112194;28;20549;-55
2022/10/12 06:56:06;;;;;;;32.07;21.50;;;13.80;99.90;;;;;;5111811;28;20527;-56
2022/10/12 06:58:33;;;;;;;31.60;21.00;;;13.80;99.90;;;;;;5112773;28;20482;-56
2022/10/12 07:01:03;;;;;;;28.57;19.73;;;13.90;99.90;;;;;;5112827;28;20469;-56
2022/10/12 07:03:31;;;;;;;28.93;19.87;;;13.90;99.90;;;;;;5111343;28;20466;-56
2022/10/12 07:06:07;;;;;;;20.97;17.73;;;14.00;99.90;;;;;;5112092;28;20447;-56
2022/10/12 07:08:34;;;;;;;26.13;18.73;;;13.90;99.90;;;;;;5112503;28;20822;-56
2022/10/12 07:11:02;;;;;;;22.33;18.80;;;14.00;99.90;;;;;;5110733;28;20542;-55
2022/10/12 07:13:29;;;;;;;23.47;17.70;;;14.10;99.90;;;;;;5112369;28;20471;-56
2022/10/12 07:15:56;;;;;;;28.40;18.60;;;14.10;99.90;;;;;;5112501;28;20449;-55
2022/10/12 07:18:24;;;;;;;30.90;20.50;;;14.10;99.90;;;;;;5110222;28;21023;-55
2022/10/12 07:20:51;;;;;;;22.80;19.20;;;14.10;99.90;;;;;;5112157;28;20447;-55
2022/10/12 07:23:19;;;;;;;25.10;19.67;;;14.10;99.90;;;;;;5111945;28;20463;-55
2022/10/12 07:25:50;;;;;;;25.60;17.67;;;14.20;99.90;;;;;;5110666;28;20525;-55
2022/10/12 07:28:17;;;;;;;19.53;17.43;;;14.10;99.90;;;;;;5112466;28;20546;-55
2022/10/12 07:30:44;;;;;;;25.40;18.63;;;14.20;99.90;;;;;;5112543;28;20454;-55
2022/10/12 07:33:12;;;;;;;25.77;20.77;;;14.30;99.90;;;;;;5113306;28;20470;-56
2022/10/12 07:35:39;;;;;;;25.03;19.50;;;14.40;99.90;;;;;;5115935;28;20450;-56
2022/10/12 07:38:06;;;;;;;25.33;19.07;;;14.50;99.90;;;;;;5115768;28;20468;-56
2022/10/12 07:40:37;;;;;;;25.90;19.80;;;14.60;99.90;;;;;;5114000;28;20809;-55
2022/10/12 07:43:04;;;;;;;26.43;19.10;;;14.60;99.90;;;;;;5116231;28;20479;-56
2022/10/12 07:45:32;;;;;;;25.97;20.17;;;14.60;99.90;;;;;;5115653;28;20446;-56
2022/10/12 07:47:59;;;;;;;30.53;19.07;;;14.70;99.90;;;;;;5114445;28;20454;-56
2022/10/12 07:50:27;;;;;;;29.90;19.83;;;14.80;99.90;;;;;;5116045;28;20438;-56
2022/10/12 07:52:54;;;;;;;26.00;21.40;;;14.80;99.90;;;;;;5115549;28;20450;-56
2022/10/12 07:55:21;;;;;;;30.40;19.23;;;14.70;99.90;;;;;;5114278;28;20474;-56
2022/10/12 07:57:49;;;;;;;29.00;19.30;;;14.70;99.90;;;;;;5115830;28;20516;-56
2022/10/12 08:00:17;;;;;;;25.77;19.13;;;14.90;99.90;;;;;;5115534;28;20549;-56
2022/10/12 08:02:44;;;;;;;23.00;19.60;;;14.90;99.90;;;;;;5113496;28;20442;-56
2022/10/12 08:05:11;;;;;;;22.07;19.60;;;14.90;99.90;;;;;;5115250;28;20450;-56
2022/10/12 08:07:38;;;;;;;22.93;20.53;;;15.00;99.90;;;;;;5115704;28;20529;-56
2022/10/12 08:10:06;;;;;;;29.97;20.17;;;15.00;99.90;;;;;;5113980;28;20594;-56
2022/10/12 08:12:33;;;;;;;27.60;19.90;;;15.00;99.90;;;;;;5115194;28;20467;-56
2022/10/12 08:15:02;;;;;;;31.70;19.33;;;15.00;99.90;;;;;;5115242;28;20797;-56
2022/10/12 08:17:29;;;;;;;26.40;20.13;;;15.10;99.90;;;;;;5114373;28;20515;-56
2022/10/12 08:19:56;;;;;;;32.50;20.43;;;15.30;99.90;;;;;;5114765;28;20451;-56
2022/10/12 08:22:23;;;;;;;27.73;19.77;;;15.20;99.90;;;;;;5115481;28;20451;-55
2022/10/12 08:24:50;;;;;;;24.80;18.67;;;15.20;99.90;;;;;;5112737;28;20454;-56
2022/10/12 08:27:17;;;;;;;25.70;21.80;;;15.30;99.90;;;;;;5114865;28;20541;-56
2022/10/12 08:29:44;;;;;;;28.43;19.47;;;15.30;99.90;;;;;;5114787;28;20462;-56
2022/10/12 08:32:13;;;;;;;22.40;19.77;;;15.50;99.90;;;;;;5113526;28;20988;-56
2022/10/12 08:34:40;;;;;;;25.20;20.17;;;15.60;99.90;;;;;;5114814;28;21062;-55
2022/10/12 08:37:07;;;;;;;37.40;19.60;;;15.60;99.90;;;;;;5114751;28;20533;-56
2022/10/12 08:39:34;;;;;;;28.60;19.33;;;15.80;99.90;;;;;;5111725;28;20497;-56
2022/10/12 08:42:13;;;;;;;30.90;21.20;;;15.80;99.90;;;;;;5114817;28;20550;-56
2022/10/12 08:44:57;;;;;;;26.20;20.70;;;15.80;99.90;;;;;;5114949;28;20470;-56
2022/10/12 08:47:34;;;;;;;26.20;18.97;;;15.80;99.90;;;;;;5113157;28;20841;-56
2022/10/12 08:50:04;;;;;;;27.67;20.97;;;15.90;99.90;;;;;;5114712;28;20934;-56
2022/10/12 08:52:36;;;;;;;29.73;20.20;;;16.00;99.90;;;;;;5114381;28;20882;-56
2022/10/12 08:55:16;;;;;;;26.83;20.40;;;16.10;99.90;;;;;;5112913;28;20893;-56
2022/10/12 08:57:43;;;;;;;27.80;20.43;;;16.30;99.90;;;;;;5114541;28;20565;-56
2022/10/12 09:00:14;;;;;;;27.27;19.83;;;16.30;99.90;;;;;;5114353;28;20458;-56
2022/10/12 09:03:04;;;;;;;26.40;20.00;;;16.20;99.90;;;;;;5112611;28;20451;-56
2022/10/12 09:05:36;;;;;;;27.57;21.33;;;16.10;99.90;;;;;;5114431;28;20820;-56
2022/10/12 09:08:10;;;;;;;26.43;21.50;;;16.10;99.90;;;;;;5113880;28;20403;-56
2022/10/12 09:10:46;;;;;;;27.03;21.20;;;16.00;99.90;;;;;;5113706;28;20419;-56
2022/10/12 09:13:37;;;;;;;28.20;20.13;;;16.10;99.90;;;;;;5114051;28;20466;-56
2022/10/12 09:16:08;;;;;;;27.83;19.93;;;16.10;99.90;;;;;;5112713;28;20521;-56
2022/10/12 09:18:40;;;;;;;22.50;18.83;;;16.10;99.90;;;;;;5114069;28;20463;-56
2022/10/12 09:21:10;;;;;;;23.97;18.90;;;16.10;99.90;;;;;;5114238;28;20434;-56
2022/10/12 09:23:40;;;;;;;22.97;16.93;;;16.00;99.90;;;;;;5112681;28;20965;-56
2022/10/12 09:26:16;;;;;;;23.37;16.03;;;16.10;99.90;;;;;;5114595;28;20427;-56
2022/10/12 09:28:44;;;;;;;20.80;15.80;;;16.10;99.90;;;;;;5113364;28;20818;-56
2022/10/12 09:31:29;;;;;;;20.70;17.30;;;16.30;99.90;;;;;;5112409;28;20450;-56
2022/10/12 09:34:00;;;;;;;20.70;15.70;;;16.20;99.90;;;;;;5113467;28;20442;-56
2022/10/12 09:36:31;;;;;;;24.43;16.50;;;16.20;99.90;;;;;;5113936;28;20431;-56
2022/10/12 09:39:02;;;;;;;21.60;16.40;;;16.10;99.90;;;;;;5111703;28;20473;-56
2022/10/12 09:41:33;;;;;;;20.07;17.37;;;16.10;99.90;;;;;;5113456;28;20431;-56
2022/10/12 09:44:02;;;;;;;17.70;14.43;;;16.10;99.90;;;;;;5113625;28;20462;-56
2022/10/12 09:46:41;;;;;;;21.93;14.93;;;16.20;99.90;;;;;;5112347;28;20453;-56
2022/10/12 09:49:09;;;;;;;17.47;13.67;;;16.10;99.90;;;;;;5113523;28;20732;-56
2022/10/12 09:51:37;;;;;;;22.93;15.80;;;15.90;99.90;;;;;;5113571;28;20566;-56
2022/10/12 09:54:05;;;;;;;22.17;14.17;;;16.10;99.90;;;;;;5112133;28;20454;-56
2022/10/12 09:56:39;;;;;;;16.30;13.93;;;16.20;99.90;;;;;;5112457;28;20481;-56
2022/10/12 09:59:26;;;;;;;20.33;13.43;;;16.30;99.90;;;;;;5113822;28;20458;-56
2022/10/12 10:02:10;;;;;;;18.70;14.63;;;16.30;99.90;;;;;;5111678;28;20509;-56
2022/10/12 10:04:39;;;;;;;17.70;13.93;;;16.10;99.90;;;;;;5113073;28;20438;-56
2022/10/12 10:07:21;;;;;;;22.63;14.40;;;16.10;99.90;;;;;;5113440;28;20446;-56
2022/10/12 10:10:02;;;;;;;19.70;13.27;;;16.20;99.90;;;;;;5113214;28;20524;-56
2022/10/12 10:12:30;;;;;;;17.07;13.67;;;16.40;99.90;;;;;;5112868;28;20467;-56
2022/10/12 10:14:58;;;;;;;19.67;14.43;;;16.50;99.90;;;;;;5111578;28;21081;-55
2022/10/12 10:17:28;;;;;;;20.77;13.40;;;16.40;99.90;;;;;;5112819;28;20482;-56
2022/10/12 10:19:58;;;;;;;18.23;12.90;;;16.40;99.90;;;;;;5112732;28;20514;-55
2022/10/12 10:22:25;;;;;;;16.97;12.67;;;16.30;99.90;;;;;;5111746;28;20549;-56
2022/10/12 10:24:55;;;;;;;13.90;11.40;;;16.40;99.90;;;;;;5112372;28;20933;-56
2022/10/12 10:27:32;;;;;;;17.67;12.13;;;16.40;99.90;;;;;;5112859;28;20453;-56
2022/10/12 10:30:21;;;;;;;14.00;12.30;;;16.40;99.90;;;;;;5111718;28;20462;-56
2022/10/12 10:32:49;;;;;;;22.20;13.37;;;16.50;99.90;;;;;;5112625;28;20987;-56
2022/10/12 10:35:22;;;;;;;20.23;13.10;;;16.70;99.90;;;;;;5112695;28;20549;-56
2022/10/12 10:37:54;;;;;;;21.80;14.20;;;16.70;99.90;;;;;;5111808;28;20453;-56
2022/10/12 10:40:24;;;;;;;14.57;12.90;;;16.70;99.90;;;;;;5112947;28;20423;-56
2022/10/12 10:42:55;;;;;;;17.53;12.90;;;16.50;99.90;;;;;;5112632;28;20462;-56
2022/10/12 10:45:25;;;;;;;16.70;13.50;;;16.40;99.90;;;;;;5111440;28;20455;-56
2022/10/12 10:48:00;;;;;;;17.27;12.83;;;16.40;99.90;;;;;;5112733;28;20473;-56
2022/10/12 10:50:34;;;;;;;16.17;13.77;;;16.40;99.90;;;;;;5112896;28;20768;-57
2022/10/12 10:53:05;;;;;;;19.00;13.03;;;16.50;99.90;;;;;;5111080;28;20473;-56
2022/10/12 10:55:42;;;;;;;17.83;13.17;;;16.50;99.90;;;;;;5112091;28;20474;-56
2022/10/12 10:58:19;;;;;;;15.30;11.73;;;16.50;99.90;;;;;;5111912;28;20423;-56
2022/10/12 11:00:47;;;;;;;16.90;12.47;;;16.70;99.90;;;;;;5111995;28;20454;-56
2022/10/12 11:03:23;;;;;;;17.60;13.30;;;16.80;99.90;;;;;;5112363;28;20458;-56
2022/10/12 11:05:55;;;;;;;14.57;12.13;;;16.90;99.90;;;;;;5112560;28;20503;-56
2022/10/12 11:08:25;;;;;;;16.13;11.40;;;16.90;99.90;;;;;;5114134;28;20456;-56
2022/10/12 11:10:57;;;;;;;22.93;13.73;;;16.90;99.90;;;;;;5116344;28;20514;-56
2022/10/12 11:13:28;;;;;;;17.53;11.90;;;17.00;99.90;;;;;;5116076;28;20780;-55
2022/10/12 11:16:01;;;;;;;16.03;13.07;;;16.90;99.90;;;;;;5115335;28;20530;-56
2022/10/12 11:18:36;;;;;;;22.87;12.37;;;16.90;99.90;;;;;;5115999;28;20467;-56
2022/10/12 11:21:11;;;;;;;15.20;12.13;;;17.00;99.90;;;;;;5116217;28;20430;-56
2022/10/12 11:23:45;;;;;;;17.90;12.07;;;17.00;99.90;;;;;;5115265;28;20466;-56
2022/10/12 11:26:23;;;;;;;19.23;11.83;;;16.90;99.90;;;;;;5116173;28;20445;-56
2022/10/12 11:28:51;;;;;;;18.27;12.77;;;16.80;99.90;;;;;;5115091;28;20479;-56
2022/10/12 11:31:23;;;;;;;14.27;12.10;;;16.90;99.90;;;;;;5116419;28;20451;-56
2022/10/12 11:33:52;;;;;;;15.57;12.07;;;17.00;99.90;;;;;;5116214;28;20427;-56
2022/10/12 11:36:26;;;;;;;19.23;12.20;;;17.20;99.90;;;;;;5114906;28;20944;-56
2022/10/12 11:38:59;;;;;;;18.87;11.47;;;17.30;99.90;;;;;;5115616;28;21031;-56
2022/10/12 11:41:34;;;;;;;19.17;12.87;;;17.30;99.90;;;;;;5115779;28;20889;-56
2022/10/12 11:44:05;;;;;;;16.97;11.70;;;17.30;99.90;;;;;;5114426;28;20697;-56
2022/10/12 11:46:36;;;;;;;23.47;10.77;;;17.50;99.90;;;;;;5115648;28;20521;-56
2022/10/12 11:49:13;;;;;;;16.73;11.30;;;17.30;99.90;;;;;;5115988;28;20773;-56
2022/10/12 11:51:44;;;;;;;20.57;12.03;;;17.30;99.90;;;;;;5115070;28;20469;-55
2022/10/12 11:54:22;;;;;;;22.03;12.30;;;17.40;99.90;;;;;;5114959;28;20737;-55
2022/10/12 11:56:52;;;;;;;16.43;11.37;;;17.40;99.90;;;;;;5115330;28;20474;-56
2022/10/12 11:59:29;;;;;;;18.07;12.17;;;17.60;99.90;;;;;;5114826;28;20463;-55
2022/10/12 12:02:08;;;;;;;15.00;11.13;;;17.50;99.90;;;;;;5115909;28;20891;-55
2022/10/12 12:04:37;;;;;;;15.00;10.80;;;17.70;99.90;;;;;;5115842;28;20454;-55
2022/10/12 12:07:28;;;;;;;14.67;12.00;;;17.70;99.90;;;;;;5114642;28;20530;-55
2022/10/12 12:09:55;;;;;;;19.60;11.60;;;17.70;99.90;;;;;;5115164;28;20491;-55
2022/10/12 12:12:24;;;;;;;18.70;11.80;;;17.80;99.90;;;;;;5115346;28;20466;-55
2022/10/12 12:15:06;;;;;;;15.70;10.77;;;17.80;99.90;;;;;;5113290;28;20941;-55
2022/10/12 12:17:35;;;;;;;15.10;12.80;;;17.90;99.90;;;;;;5114989;28;20880;-55
2022/10/12 12:20:29;;;;;;;15.87;12.03;;;17.90;99.90;;;;;;5114751;28;20988;-56
2022/10/12 12:22:59;;;;;;;14.43;11.50;;;17.90;99.90;;;;;;5114074;28;20973;-56
2022/10/12 12:25:32;;;;;;;15.23;11.37;;;18.00;99.90;;;;;;5114964;28;20496;-55
2022/10/12 12:28:05;;;;;;;13.90;11.03;;;17.70;99.90;;;;;;5113874;28;20434;-55
2022/10/12 12:30:36;;;;;;;14.07;11.77;;;17.70;99.90;;;;;;5115119;28;20592;-55
2022/10/12 12:33:07;;;;;;;14.37;11.50;;;17.70;99.90;;;;;;5114840;28;20462;-55
2022/10/12 12:35:38;;;;;;;15.77;11.20;;;17.80;99.90;;;;;;5113797;28;20545;-56
2022/10/12 12:38:23;;;;;;;21.73;10.93;;;17.90;99.90;;;;;;5114573;28;20517;-56
2022/10/12 12:41:03;;;;;;;11.97;9.63;;;18.00;99.90;;;;;;5115006;28;20473;-56
2022/10/12 12:43:56;;;;;;;13.07;9.40;;;17.90;99.90;;;;;;5113308;28;20468;-56